createdAt,value
2023-02-05T00:01:05.084Z,0.30
2023-02-05T00:03:31.916Z,0.30
2023-02-05T00:08:27.494Z,0.40
2023-02-05T00:10:54.323Z,0.50
2023-02-05T00:13:21.108Z,0.60
2023-02-05T00:15:48.000Z,0.60
2023-02-05T00:18:14.811Z,0.60
2023-02-05T00:23:08.727Z,0.60
2023-02-05T00:25:35.732Z,0.70
2023-02-05T00:28:02.822Z,0.80
2023-02-05T00:30:29.877Z,1.00
2023-02-05T00:32:56.602Z,1.00
2023-02-05T00:35:23.295Z,1.00
2023-02-05T00:37:49.993Z,1.00
2023-02-05T00:40:17.124Z,1.00
2023-02-05T00:42:43.920Z,0.80
2023-02-05T00:45:10.634Z,0.80
2023-02-05T00:47:37.414Z,0.70
2023-02-05T00:50:04.537Z,0.60
2023-02-05T00:52:31.318Z,0.60
2023-02-05T00:54:58.266Z,0.70
2023-02-05T00:57:25.046Z,0.80
2023-02-05T00:59:52.809Z,0.80
2023-02-05T01:02:25.133Z,0.80
2023-02-05T01:04:52.586Z,0.70
2023-02-05T01:07:20.565Z,0.70
2023-02-05T01:09:47.480Z,0.80
2023-02-05T01:12:15.104Z,0.80
2023-02-05T01:14:42.737Z,0.70
2023-02-05T01:17:09.450Z,0.70
2023-02-05T01:19:37.144Z,0.60
2023-02-05T01:22:05.064Z,0.50
2023-02-05T01:24:32.341Z,0.40
2023-02-05T01:26:59.476Z,0.40
2023-02-05T01:38:54.404Z,0.30
2023-02-05T01:41:21.241Z,0.40
2023-02-05T01:44:08.512Z,0.50
2023-02-05T01:46:36.957Z,0.50
2023-02-05T01:49:05.827Z,0.50
2023-02-05T01:51:35.418Z,0.40
2023-02-05T01:54:02.527Z,0.40
2023-02-05T01:56:44.757Z,0.30
2023-02-05T01:59:24.457Z,0.10
2023-02-05T02:01:51.950Z,0.10
2023-02-05T02:04:50.056Z,0.00
2023-02-05T02:07:20.691Z,0.00
2023-02-05T02:09:49.291Z,0.00
2023-02-05T02:12:21.209Z,0.10
2023-02-05T02:14:51.638Z,0.00
2023-02-05T02:17:19.465Z,0.00
2023-02-05T02:20:06.101Z,-0.10
2023-02-05T02:23:11.620Z,-0.10
2023-02-05T02:28:12.250Z,-0.10
2023-02-05T02:30:57.056Z,0.00
2023-02-05T02:33:45.987Z,0.20
2023-02-05T02:36:28.931Z,0.20
2023-02-05T02:39:34.189Z,0.40
2023-02-05T02:42:10.167Z,0.50
2023-02-05T02:45:03.454Z,0.50
2023-02-05T02:47:36.671Z,0.60
2023-02-05T02:50:09.401Z,0.60
2023-02-05T02:52:40.233Z,0.70
2023-02-05T02:55:11.268Z,0.70
2023-02-05T02:57:43.352Z,0.70
2023-02-05T03:00:15.604Z,0.80
2023-02-05T03:02:45.350Z,0.80
2023-02-05T03:05:16.496Z,0.90
2023-02-05T03:07:48.711Z,1.00
2023-02-05T03:10:15.359Z,0.90
2023-02-05T03:12:42.284Z,0.90
2023-02-05T03:15:10.654Z,0.90
2023-02-05T03:17:38.775Z,1.00
2023-02-05T03:20:08.590Z,1.00
2023-02-05T03:22:35.479Z,0.90
2023-02-05T03:25:03.831Z,0.90
2023-02-05T03:27:30.713Z,0.90
2023-02-05T03:29:57.682Z,0.90
2023-02-05T03:32:46.972Z,0.90
2023-02-05T03:35:19.360Z,0.90
2023-02-05T03:38:24.436Z,0.90
2023-02-05T03:41:50.577Z,1.00
2023-02-05T03:44:23.368Z,1.10
2023-02-05T03:47:07.259Z,1.10
2023-02-05T03:49:58.010Z,1.00
2023-02-05T03:52:32.364Z,1.10
2023-02-05T03:55:22.351Z,1.10
2023-02-05T03:58:13.256Z,1.10
2023-02-05T04:00:41.329Z,1.20
2023-02-05T04:03:08.256Z,1.20
2023-02-05T04:05:35.344Z,1.20
2023-02-05T04:08:02.449Z,1.10
2023-02-05T04:10:29.224Z,1.10
2023-02-05T04:12:55.937Z,1.10
2023-02-05T04:15:22.625Z,1.20
2023-02-05T04:17:49.337Z,1.20
2023-02-05T04:20:16.130Z,1.20
2023-02-05T04:22:42.924Z,1.20
2023-02-05T04:25:09.738Z,1.20
2023-02-05T04:27:36.481Z,1.20
2023-02-05T04:30:03.650Z,1.20
2023-02-05T04:32:30.406Z,1.20
2023-02-05T04:34:57.099Z,1.20
2023-02-05T04:37:25.127Z,1.20
2023-02-05T04:39:51.907Z,1.20
2023-02-05T04:42:18.653Z,1.30
2023-02-05T04:44:45.398Z,1.30
2023-02-05T04:47:13.482Z,1.30
2023-02-05T04:49:40.995Z,1.30
2023-02-05T04:52:08.201Z,1.30
2023-02-05T04:54:36.500Z,1.20
2023-02-05T04:57:03.205Z,1.20
2023-02-05T04:59:31.575Z,1.20
2023-02-05T05:01:59.397Z,1.30
2023-02-05T05:04:26.484Z,1.40
2023-02-05T05:06:53.202Z,1.30
2023-02-05T05:09:23.938Z,1.40
2023-02-05T05:11:54.703Z,1.30
2023-02-05T05:14:21.862Z,1.40
2023-02-05T05:16:49.696Z,1.50
2023-02-05T05:19:16.781Z,1.50
2023-02-05T05:24:10.656Z,1.50
2023-02-05T05:26:39.245Z,1.40
2023-02-05T05:29:06.274Z,1.40
2023-02-05T05:34:00.147Z,1.40
2023-02-05T05:41:42.610Z,1.40
2023-02-05T05:44:09.956Z,1.50
2023-02-05T05:46:36.705Z,1.50
2023-02-05T05:49:04.111Z,1.60
2023-02-05T05:51:32.583Z,1.60
2023-02-05T05:53:59.399Z,1.70
2023-02-05T05:56:26.192Z,1.70
2023-02-05T05:58:53.056Z,1.60
2023-02-05T06:01:22.031Z,1.60
2023-02-05T06:03:49.280Z,1.50
2023-02-05T06:06:16.285Z,1.50
2023-02-05T06:08:43.148Z,1.40
2023-02-05T06:11:09.924Z,1.50
2023-02-05T06:13:36.714Z,1.50
2023-02-05T06:16:03.982Z,1.50
2023-02-05T06:18:31.010Z,1.60
2023-02-05T06:20:58.002Z,1.70
2023-02-05T06:23:24.773Z,1.70
2023-02-05T06:25:51.520Z,1.60
2023-02-05T06:28:18.549Z,1.60
2023-02-05T06:30:45.494Z,1.60
2023-02-05T06:33:12.981Z,1.60
2023-02-05T06:35:40.768Z,1.60
2023-02-05T06:38:07.988Z,1.70
2023-02-05T06:40:35.081Z,1.60
2023-02-05T06:43:01.916Z,1.60
2023-02-05T06:45:29.105Z,1.60
2023-02-05T06:47:57.517Z,1.60
2023-02-05T06:50:25.414Z,1.50
2023-02-05T06:52:52.308Z,1.50
2023-02-05T06:55:19.091Z,1.60
2023-02-05T06:57:45.837Z,1.60
2023-02-05T07:00:13.768Z,1.60
2023-02-05T07:02:40.562Z,1.60
2023-02-05T07:05:07.638Z,1.70
2023-02-05T07:07:34.455Z,1.60
2023-02-05T07:10:01.277Z,1.60
2023-02-05T07:12:28.198Z,1.60
2023-02-05T07:14:55.007Z,1.60
2023-02-05T07:17:21.748Z,1.60
2023-02-05T07:19:48.610Z,1.70
2023-02-05T07:22:16.114Z,1.80
2023-02-05T07:24:42.872Z,1.80
2023-02-05T07:27:09.608Z,1.80
2023-02-05T07:29:36.316Z,1.80
2023-02-05T07:32:03.195Z,1.70
2023-02-05T07:34:29.915Z,1.70
2023-02-05T07:36:56.649Z,1.70
2023-02-05T07:39:23.442Z,1.70
2023-02-05T07:41:51.305Z,1.70
2023-02-05T07:44:18.103Z,1.70
2023-02-05T07:46:44.848Z,1.60
2023-02-05T07:49:11.680Z,1.50
2023-02-05T07:51:38.695Z,1.50
2023-02-05T07:54:09.912Z,1.60
2023-02-05T07:56:36.772Z,1.70
2023-02-05T07:59:03.954Z,1.70
2023-02-05T08:01:30.712Z,1.70
2023-02-05T08:03:57.486Z,1.80
2023-02-05T08:06:24.309Z,1.80
2023-02-05T08:11:19.015Z,1.80
2023-02-05T08:13:46.655Z,1.80
2023-02-05T08:16:17.923Z,1.80
2023-02-05T08:18:49.441Z,1.80
2023-02-05T08:21:16.957Z,1.90
2023-02-05T08:23:43.909Z,1.90
2023-02-05T08:26:10.727Z,1.90
2023-02-05T08:31:16.180Z,1.90
2023-02-05T08:33:43.615Z,1.90
2023-02-05T08:36:11.082Z,1.90
2023-02-05T08:38:37.937Z,1.90
2023-02-05T08:41:12.416Z,1.90
2023-02-05T08:43:41.049Z,2.00
2023-02-05T08:46:08.794Z,2.00
2023-02-05T08:48:36.073Z,2.00
2023-02-05T08:51:03.729Z,1.90
2023-02-05T08:53:31.812Z,1.90
2023-02-05T08:56:00.246Z,1.90
2023-02-05T08:58:27.836Z,2.00
2023-02-05T09:01:01.637Z,2.00
2023-02-05T09:03:29.036Z,2.00
2023-02-05T09:05:55.877Z,2.10
2023-02-05T09:08:22.627Z,2.10
2023-02-05T09:13:16.868Z,2.10
2023-02-05T09:15:48.270Z,2.10
2023-02-05T09:18:15.331Z,2.20
2023-02-05T09:20:47.253Z,2.10
2023-02-05T09:23:16.169Z,2.20
2023-02-05T09:25:43.542Z,2.30
2023-02-05T09:28:13.296Z,2.40
2023-02-05T09:30:42.759Z,2.40
2023-02-05T09:33:10.842Z,2.40
2023-02-05T09:35:37.986Z,2.40
2023-02-05T09:38:05.669Z,2.40
2023-02-05T09:40:35.384Z,2.50
2023-02-05T09:43:16.000Z,2.50
2023-02-05T09:45:56.958Z,2.50
2023-02-05T09:48:49.285Z,2.60
2023-02-05T09:51:25.688Z,2.60
2023-02-05T09:53:56.338Z,2.60
2023-02-05T09:56:24.953Z,2.60
2023-02-05T09:58:54.715Z,2.60
2023-02-05T10:01:40.543Z,2.70
2023-02-05T10:04:08.348Z,2.70
2023-02-05T10:06:40.907Z,2.80
2023-02-05T10:09:16.480Z,2.70
2023-02-05T10:12:14.968Z,2.70
2023-02-05T10:15:11.317Z,2.70
2023-02-05T10:18:03.311Z,2.80
2023-02-05T10:21:05.207Z,2.80
2023-02-05T10:23:57.041Z,2.90
2023-02-05T10:26:46.383Z,3.00
2023-02-05T10:29:27.011Z,3.10
2023-02-05T10:32:23.672Z,3.10
2023-02-05T10:35:02.815Z,3.20
2023-02-05T10:37:47.894Z,3.30
2023-02-05T10:40:21.110Z,3.40
2023-02-05T10:42:57.211Z,3.40
2023-02-05T10:45:27.569Z,3.50
2023-02-05T10:48:20.359Z,3.60
2023-02-05T10:50:59.879Z,3.70
2023-02-05T10:53:28.086Z,3.70
2023-02-05T10:55:56.293Z,3.70
2023-02-05T10:58:28.496Z,3.70
2023-02-05T11:00:55.623Z,3.80
2023-02-05T11:03:23.443Z,4.00
2023-02-05T11:05:51.041Z,4.00
2023-02-05T11:08:37.354Z,4.00
2023-02-05T11:11:05.495Z,4.00
2023-02-05T11:13:33.595Z,4.00
2023-02-05T11:16:05.068Z,4.00
2023-02-05T11:18:45.716Z,4.10
2023-02-05T11:21:13.330Z,4.00
2023-02-05T11:23:53.589Z,4.00
2023-02-05T11:26:23.565Z,4.00
2023-02-05T11:28:50.637Z,4.00
2023-02-05T11:31:31.157Z,4.00
2023-02-05T11:34:17.074Z,4.00
2023-02-05T11:36:55.556Z,4.00
2023-02-05T11:39:36.736Z,4.00
2023-02-05T11:42:09.573Z,4.00
2023-02-05T11:44:42.753Z,4.00
2023-02-05T11:47:09.616Z,4.10
2023-02-05T11:49:40.265Z,4.10
2023-02-05T11:52:14.842Z,4.10
2023-02-05T11:54:47.557Z,4.00
2023-02-05T11:57:20.084Z,4.10
2023-02-05T12:00:01.648Z,4.10
2023-02-05T12:02:28.602Z,4.10
2023-02-05T12:05:24.043Z,4.10
2023-02-05T12:08:27.560Z,4.10
2023-02-05T12:11:00.996Z,4.10
2023-02-05T12:13:45.552Z,4.10
2023-02-05T12:16:41.642Z,4.00
2023-02-05T12:19:20.378Z,4.10
2023-02-05T12:22:16.586Z,4.10
2023-02-05T12:24:51.223Z,4.10
2023-02-05T12:27:53.253Z,4.10
2023-02-05T12:30:55.076Z,4.20
2023-02-05T12:34:00.030Z,4.20
2023-02-05T12:36:52.560Z,4.10
2023-02-05T12:39:44.983Z,4.10
2023-02-05T12:42:39.249Z,4.10
2023-02-05T12:45:30.382Z,4.10
2023-02-05T12:48:57.260Z,4.10
2023-02-05T12:52:06.582Z,4.20
2023-02-05T12:54:59.480Z,4.20
2023-02-05T12:57:37.620Z,4.20
2023-02-05T13:00:12.111Z,4.20
2023-02-05T13:02:45.119Z,4.20
2023-02-05T13:05:29.959Z,4.30
2023-02-05T13:08:06.110Z,4.30
2023-02-05T13:10:57.286Z,4.30
2023-02-05T13:13:50.586Z,4.30
2023-02-05T13:16:19.901Z,4.30
2023-02-05T13:19:02.037Z,4.20
2023-02-05T13:21:48.322Z,4.20
2023-02-05T13:24:39.327Z,4.40
2023-02-05T13:27:40.404Z,4.40
2023-02-05T13:30:14.261Z,4.40
2023-02-05T13:32:44.308Z,4.50
2023-02-05T13:35:11.224Z,4.50
2023-02-05T13:38:15.959Z,4.50
2023-02-05T13:41:06.664Z,4.50
2023-02-05T13:43:39.434Z,4.50
2023-02-05T13:46:21.137Z,4.60
2023-02-05T13:49:12.436Z,4.60
2023-02-05T13:51:43.031Z,4.60
2023-02-05T13:54:15.760Z,4.70
2023-02-05T13:56:48.733Z,4.60
2023-02-05T13:59:22.848Z,4.60
2023-02-05T14:02:00.327Z,4.60
2023-02-05T14:04:40.430Z,4.60
2023-02-05T14:07:19.217Z,4.50
2023-02-05T14:09:56.460Z,4.50
2023-02-05T14:12:25.764Z,4.50
2023-02-05T14:15:19.754Z,4.50
2023-02-05T14:17:46.433Z,4.60
2023-02-05T14:20:35.570Z,4.50
2023-02-05T14:23:04.282Z,4.40
2023-02-05T14:25:38.232Z,4.40
2023-02-05T14:28:17.227Z,4.50
2023-02-05T14:30:58.857Z,4.60
2023-02-05T14:33:37.350Z,4.60
2023-02-05T14:36:22.857Z,4.50
2023-02-05T14:39:00.981Z,4.50
2023-02-05T14:41:40.170Z,4.60
2023-02-05T14:44:30.205Z,4.50
2023-02-05T14:47:21.749Z,4.50
2023-02-05T14:49:50.262Z,4.50
2023-02-05T14:52:27.918Z,4.50
2023-02-05T14:55:00.947Z,4.50
2023-02-05T14:57:45.278Z,4.50
2023-02-05T15:00:27.050Z,4.40
2023-02-05T15:03:05.803Z,4.50
2023-02-05T15:05:44.700Z,4.40
2023-02-05T15:08:16.966Z,4.50
2023-02-05T15:11:05.488Z,4.40
2023-02-05T15:13:33.584Z,4.40
2023-02-05T15:16:19.546Z,4.40
2023-02-05T15:18:58.949Z,4.40
2023-02-05T15:21:39.352Z,4.30
2023-02-05T15:24:20.965Z,4.30
2023-02-05T15:27:16.826Z,4.30
2023-02-05T15:29:57.192Z,4.40
2023-02-05T15:32:33.798Z,4.40
2023-02-05T15:35:05.547Z,4.40
2023-02-05T15:37:43.078Z,4.40
2023-02-05T15:40:18.704Z,4.30
2023-02-05T15:42:50.147Z,4.20
2023-02-05T15:45:29.565Z,4.20
2023-02-05T15:48:05.782Z,4.30
2023-02-05T15:50:35.036Z,4.20
2023-02-05T15:53:03.332Z,4.20
2023-02-05T15:55:30.670Z,4.20
2023-02-05T15:58:03.841Z,4.20
2023-02-05T16:00:32.206Z,4.20
2023-02-05T16:03:03.460Z,4.30
2023-02-05T16:05:31.839Z,4.20
2023-02-05T16:08:01.835Z,4.20
2023-02-05T16:10:30.513Z,4.20
2023-02-05T16:13:02.239Z,4.20
2023-02-05T16:15:41.257Z,4.10
2023-02-05T16:18:38.675Z,4.10
2023-02-05T16:21:24.570Z,4.10
2023-02-05T16:23:57.874Z,4.20
2023-02-05T16:26:31.861Z,4.20
2023-02-05T16:29:02.452Z,4.20
2023-02-05T16:31:30.115Z,4.10
2023-02-05T16:34:17.547Z,4.00
2023-02-05T16:36:47.816Z,4.00
2023-02-05T16:39:20.338Z,4.00
2023-02-05T16:42:26.133Z,4.00
2023-02-05T16:45:19.638Z,4.00
2023-02-05T16:48:22.711Z,4.00
2023-02-05T16:50:50.699Z,4.00
2023-02-05T16:53:26.876Z,4.00
2023-02-05T16:56:19.746Z,4.00
2023-02-05T16:58:50.918Z,3.90
2023-02-05T17:01:32.708Z,3.90
2023-02-05T17:03:59.586Z,3.90
2023-02-05T17:06:34.441Z,3.90
2023-02-05T17:09:04.854Z,3.90
2023-02-05T17:11:39.065Z,3.90
2023-02-05T17:14:24.443Z,3.90
2023-02-05T17:17:19.007Z,3.90
2023-02-05T17:20:05.442Z,3.90
2023-02-05T17:22:32.978Z,3.90
2023-02-05T17:24:59.874Z,3.90
2023-02-05T17:27:39.440Z,3.80
2023-02-05T17:30:13.754Z,3.80
2023-02-05T17:32:40.682Z,3.80
2023-02-05T17:35:17.581Z,3.80
2023-02-05T17:37:44.340Z,3.80
2023-02-05T17:40:15.149Z,3.70
2023-02-05T17:42:43.382Z,3.70
2023-02-05T17:45:20.211Z,3.70
2023-02-05T17:47:47.506Z,3.70
2023-02-05T17:50:14.514Z,3.70
2023-02-05T17:52:41.478Z,3.70
2023-02-05T17:55:13.454Z,3.80
2023-02-05T17:57:42.924Z,3.70
2023-02-05T18:00:23.121Z,3.80
2023-02-05T18:02:52.301Z,3.80
2023-02-05T18:05:20.328Z,3.80
2023-02-05T18:07:50.505Z,3.80
2023-02-05T18:10:23.228Z,3.80
2023-02-05T18:12:50.393Z,3.80
2023-02-05T18:15:17.342Z,3.80
2023-02-05T18:17:44.226Z,3.80
2023-02-05T18:20:11.985Z,3.80
2023-02-05T18:22:38.807Z,3.80
2023-02-05T18:25:06.914Z,3.80
2023-02-05T18:27:33.760Z,3.80
2023-02-05T18:30:00.800Z,3.80
2023-02-05T18:32:27.955Z,3.80
2023-02-05T18:34:54.736Z,3.70
2023-02-05T18:37:21.592Z,3.80
2023-02-05T18:39:48.881Z,3.70
2023-02-05T18:42:15.627Z,3.70
2023-02-05T18:44:42.589Z,3.70
2023-02-05T18:47:10.784Z,3.70
2023-02-05T18:49:37.853Z,3.70
2023-02-05T18:52:05.900Z,3.70
2023-02-05T18:54:32.808Z,3.80
2023-02-05T18:56:59.714Z,3.80
2023-02-05T18:59:26.508Z,3.80
2023-02-05T19:01:53.704Z,3.80
2023-02-05T19:04:21.029Z,3.80
2023-02-05T19:06:54.562Z,3.80
2023-02-05T19:09:23.489Z,3.80
2023-02-05T19:11:51.615Z,3.80
2023-02-05T19:14:20.792Z,3.80
2023-02-05T19:16:48.849Z,3.80
2023-02-05T19:19:21.224Z,3.80
2023-02-05T19:21:53.482Z,3.90
2023-02-05T19:24:21.458Z,3.90
2023-02-05T19:26:49.963Z,3.90
2023-02-05T19:29:18.889Z,3.80
2023-02-05T19:31:46.721Z,3.80
2023-02-05T19:34:13.886Z,3.80
2023-02-05T19:36:40.767Z,3.80
2023-02-05T19:39:09.202Z,3.90
2023-02-05T19:41:37.122Z,3.90
2023-02-05T19:44:06.664Z,3.90
2023-02-05T19:46:39.334Z,3.90
2023-02-05T19:49:17.631Z,3.80
2023-02-05T19:51:46.035Z,3.80
2023-02-05T19:54:14.885Z,3.80
2023-02-05T19:56:44.946Z,3.90
2023-02-05T19:59:12.671Z,3.80
2023-02-05T20:01:43.692Z,3.80
2023-02-05T20:04:11.859Z,3.80
2023-02-05T20:06:39.811Z,3.80
2023-02-05T20:09:10.873Z,3.90
2023-02-05T20:11:39.146Z,3.90
2023-02-05T20:14:07.094Z,3.90
2023-02-05T20:16:34.372Z,3.90
2023-02-05T20:19:01.898Z,3.80
2023-02-05T20:21:29.825Z,3.90
2023-02-05T20:23:57.470Z,3.80
2023-02-05T20:26:25.472Z,3.80
2023-02-05T20:29:14.709Z,3.90
2023-02-05T20:31:47.131Z,3.90
2023-02-05T20:34:20.447Z,3.90
2023-02-05T20:36:55.803Z,3.90
2023-02-05T20:39:24.473Z,3.80
2023-02-05T20:41:52.520Z,3.80
2023-02-05T20:44:19.578Z,3.70
2023-02-05T20:46:46.854Z,3.70
2023-02-05T20:49:14.142Z,3.70
2023-02-05T20:51:41.691Z,3.70
2023-02-05T20:54:08.972Z,3.70
2023-02-05T20:56:36.208Z,3.70
2023-02-05T20:59:05.961Z,3.70
2023-02-05T21:01:34.313Z,3.80
2023-02-05T21:04:03.028Z,3.80
2023-02-05T21:06:34.914Z,3.80
2023-02-05T21:09:02.401Z,3.80
2023-02-05T21:11:29.944Z,3.80
2023-02-05T21:13:57.980Z,3.80
2023-02-05T21:16:26.465Z,3.80
2023-02-05T21:18:53.738Z,3.80
2023-02-05T21:21:21.919Z,3.80
2023-02-05T21:23:49.024Z,3.80
2023-02-05T21:26:19.910Z,3.80
2023-02-05T21:28:46.739Z,3.80
2023-02-05T21:31:14.006Z,3.80
2023-02-05T21:33:40.830Z,3.70
2023-02-05T21:36:09.956Z,3.70
2023-02-05T21:38:41.584Z,3.80
2023-02-05T21:41:19.615Z,3.80
2023-02-05T21:43:50.849Z,3.80
2023-02-05T21:46:18.050Z,3.90
2023-02-05T21:48:48.803Z,3.80
2023-02-05T21:51:17.496Z,3.90
2023-02-05T21:53:44.593Z,3.80
2023-02-05T21:56:14.598Z,3.80
2023-02-05T21:58:42.161Z,3.90
2023-02-05T22:01:23.684Z,3.90
2023-02-05T22:03:53.396Z,3.80
2023-02-05T22:06:21.469Z,3.80
2023-02-05T22:08:50.496Z,3.80
2023-02-05T22:11:18.980Z,3.70
2023-02-05T22:13:49.184Z,3.70
2023-02-05T22:16:17.196Z,3.60
2023-02-05T22:18:44.017Z,3.60
2023-02-05T22:21:18.236Z,3.50
2023-02-05T22:23:50.875Z,3.40
2023-02-05T22:26:19.595Z,3.40
2023-02-05T22:28:46.928Z,3.30
2023-02-05T22:31:16.392Z,3.20
2023-02-05T22:33:45.018Z,3.10
2023-02-05T22:36:13.990Z,3.00
2023-02-05T22:38:42.159Z,2.90
2023-02-05T22:41:15.604Z,2.90
2023-02-05T22:43:42.568Z,2.80
2023-02-05T22:46:12.141Z,2.70
2023-02-05T22:48:41.118Z,2.60
2023-02-05T22:51:13.952Z,2.50
2023-02-05T22:53:40.726Z,2.40
2023-02-05T22:56:10.638Z,2.40
2023-02-05T22:58:42.088Z,2.40
2023-02-05T23:01:15.696Z,2.30
2023-02-05T23:03:43.502Z,2.30
2023-02-05T23:06:19.673Z,2.20
2023-02-05T23:09:14.569Z,2.20
2023-02-05T23:11:42.285Z,2.10
2023-02-05T23:14:09.597Z,2.10
2023-02-05T23:16:39.463Z,2.00
2023-02-05T23:19:13.321Z,1.90
2023-02-05T23:21:41.029Z,1.90
2023-02-05T23:24:08.840Z,1.80
2023-02-05T23:26:39.857Z,1.70
2023-02-05T23:29:07.645Z,1.60
2023-02-05T23:31:34.560Z,1.50
2023-02-05T23:34:01.712Z,1.50
2023-02-05T23:36:28.521Z,1.50
2023-02-05T23:38:55.221Z,1.40
2023-02-05T23:41:37.182Z,1.20
2023-02-05T23:44:05.772Z,1.10
2023-02-05T23:46:32.583Z,1.10
2023-02-05T23:48:59.324Z,1.00
2023-02-05T23:51:26.166Z,1.00
2023-02-05T23:53:53.297Z,1.00
2023-02-05T23:56:20.065Z,1.00
2023-02-05T23:58:47.092Z,1.00
